createdAt,value
2023-02-12T00:01:16.527Z,58.01
2023-02-12T00:03:43.478Z,58.14
2023-02-12T00:06:13.502Z,59.49
2023-02-12T00:08:41.723Z,57.89
2023-02-12T00:11:14.665Z,58.48
2023-02-12T00:13:41.610Z,57.87
2023-02-12T00:16:11.405Z,57.53
2023-02-12T00:18:38.393Z,58.03
2023-02-12T00:21:08.881Z,58.61
2023-02-12T00:23:36.857Z,57.24
2023-02-12T00:26:08.736Z,58.22
2023-02-12T00:28:36.407Z,57.78
2023-02-12T00:31:09.953Z,56.67
2023-02-12T00:33:37.299Z,56.54
2023-02-12T00:36:05.328Z,56.07
2023-02-12T00:38:32.471Z,56.44
2023-02-12T00:40:59.552Z,56.87
2023-02-12T00:43:26.659Z,56.50
2023-02-12T00:45:54.246Z,57.06
2023-02-12T00:48:21.374Z,57.25
2023-02-12T00:50:50.008Z,56.73
2023-02-12T00:53:17.291Z,57.31
2023-02-12T00:55:44.188Z,57.06
2023-02-12T00:58:11.735Z,57.02
2023-02-12T01:00:38.978Z,57.09
2023-02-12T01:03:06.321Z,57.80
2023-02-12T01:05:33.921Z,57.41
2023-02-12T01:08:00.909Z,57.73
2023-02-12T01:10:28.409Z,57.64
2023-02-12T01:12:55.829Z,57.54
2023-02-12T01:15:22.790Z,57.50
2023-02-12T01:17:53.015Z,57.90
2023-02-12T01:20:21.397Z,57.22
2023-02-12T01:22:48.883Z,56.93
2023-02-12T01:25:17.207Z,57.57
2023-02-12T01:27:45.124Z,57.37
2023-02-12T01:30:14.100Z,57.96
2023-02-12T01:32:41.091Z,58.30
2023-02-12T01:35:10.088Z,57.72
2023-02-12T01:37:38.502Z,57.92
2023-02-12T01:40:07.183Z,58.22
2023-02-12T01:42:34.187Z,57.79
2023-02-12T01:45:13.949Z,58.12
2023-02-12T01:47:43.008Z,58.72
2023-02-12T01:50:19.662Z,58.55
2023-02-12T01:52:52.018Z,59.17
2023-02-12T01:55:19.701Z,58.92
2023-02-12T01:57:48.380Z,59.37
2023-02-12T02:00:20.157Z,59.64
2023-02-12T02:02:50.712Z,59.61
2023-02-12T02:05:28.173Z,60.47
2023-02-12T02:07:55.158Z,61.00
2023-02-12T02:10:22.069Z,61.34
2023-02-12T02:13:07.391Z,61.53
2023-02-12T02:15:36.839Z,62.27
2023-02-12T02:18:23.258Z,61.75
2023-02-12T02:21:15.086Z,62.83
2023-02-12T02:24:06.655Z,62.38
2023-02-12T02:26:58.919Z,63.18
2023-02-12T02:29:37.923Z,63.12
2023-02-12T02:32:19.117Z,63.45
2023-02-12T02:35:14.113Z,63.72
2023-02-12T02:37:49.244Z,63.39
2023-02-12T02:40:33.406Z,62.91
2023-02-12T02:43:09.769Z,62.65
2023-02-12T02:45:59.789Z,62.22
2023-02-12T02:48:33.947Z,62.04
2023-02-12T02:51:06.564Z,62.26
2023-02-12T02:53:57.575Z,61.85
2023-02-12T02:56:28.853Z,62.07
2023-02-12T02:59:01.660Z,62.09
2023-02-12T03:01:36.714Z,62.26
2023-02-12T03:04:11.019Z,62.14
2023-02-12T03:07:01.609Z,61.49
2023-02-12T03:09:39.438Z,61.65
2023-02-12T03:12:14.346Z,63.81
2023-02-12T03:28:15.718Z,65.50
2023-02-12T03:30:45.668Z,64.61
2023-02-12T03:33:36.128Z,65.54
2023-02-12T03:36:13.959Z,63.56
2023-02-12T03:38:53.290Z,63.79
2023-02-12T03:41:45.757Z,63.96
2023-02-12T03:44:22.752Z,63.44
2023-02-12T03:47:16.157Z,65.18
2023-02-12T03:49:59.685Z,63.97
2023-02-12T03:52:27.267Z,63.85
2023-02-12T03:54:54.263Z,64.48
2023-02-12T03:57:25.176Z,64.29
2023-02-12T03:59:52.100Z,64.70
2023-02-12T04:02:19.746Z,65.67
2023-02-12T04:04:47.794Z,64.68
2023-02-12T04:07:15.557Z,66.10
2023-02-12T04:09:42.528Z,65.32
2023-02-12T04:12:47.650Z,65.34
2023-02-12T04:15:42.149Z,66.60
2023-02-12T04:18:14.843Z,64.87
2023-02-12T04:20:48.133Z,65.13
2023-02-12T04:23:18.059Z,65.20
2023-02-12T04:26:14.390Z,64.78
2023-02-12T04:28:56.435Z,64.92
2023-02-12T04:31:32.281Z,64.28
2023-02-12T04:34:26.808Z,64.04
2023-02-12T04:36:59.693Z,63.96
2023-02-12T04:39:30.846Z,63.99
2023-02-12T04:42:01.923Z,63.59
2023-02-12T04:44:31.557Z,63.25
2023-02-12T04:46:58.689Z,63.33
2023-02-12T04:49:26.646Z,63.32
2023-02-12T04:51:53.519Z,62.80
2023-02-12T04:54:22.312Z,63.44
2023-02-12T04:56:50.065Z,63.56
2023-02-12T04:59:17.627Z,63.20
2023-02-12T05:01:45.738Z,63.40
2023-02-12T05:04:15.255Z,63.52
2023-02-12T05:06:43.458Z,63.23
2023-02-12T05:09:16.936Z,63.76
2023-02-12T05:11:44.083Z,63.35
2023-02-12T05:14:11.302Z,63.87
2023-02-12T05:16:38.307Z,63.71
2023-02-12T05:19:05.209Z,63.90
2023-02-12T05:21:32.193Z,63.62
2023-02-12T05:23:59.057Z,64.09
2023-02-12T05:26:26.018Z,64.36
2023-02-12T05:28:52.891Z,65.16
2023-02-12T05:31:21.647Z,65.67
2023-02-12T05:33:49.860Z,65.93
2023-02-12T05:36:20.695Z,65.69
2023-02-12T05:38:48.625Z,66.27
2023-02-12T05:41:21.456Z,65.84
2023-02-12T05:43:49.970Z,66.43
2023-02-12T05:46:18.753Z,66.63
2023-02-12T05:48:46.236Z,66.18
2023-02-12T05:51:16.089Z,66.40
2023-02-12T05:53:43.326Z,66.47
2023-02-12T05:56:22.169Z,65.38
2023-02-12T05:58:54.448Z,65.69
2023-02-12T06:01:25.570Z,65.17
2023-02-12T06:03:52.505Z,64.58
2023-02-12T06:06:19.420Z,64.91
2023-02-12T06:08:50.022Z,64.64
2023-02-12T06:11:17.923Z,63.78
2023-02-12T06:13:45.156Z,64.35
2023-02-12T06:16:21.596Z,64.19
2023-02-12T06:18:49.310Z,63.56
2023-02-12T06:21:17.357Z,65.33
2023-02-12T06:23:44.412Z,64.54
2023-02-12T06:26:11.313Z,63.50
2023-02-12T06:28:38.308Z,65.21
2023-02-12T06:31:05.991Z,62.86
2023-02-12T06:33:35.661Z,61.80
2023-02-12T06:36:04.666Z,62.32
2023-02-12T06:38:31.511Z,61.22
2023-02-12T06:41:02.237Z,62.06
2023-02-12T06:43:29.081Z,63.47
2023-02-12T06:45:56.428Z,62.17
2023-02-12T06:48:23.658Z,62.58
2023-02-12T06:50:50.475Z,61.90
2023-02-12T06:53:17.450Z,58.52
2023-02-12T06:55:44.254Z,57.97
2023-02-12T06:58:11.090Z,59.96
2023-02-12T07:00:37.930Z,56.23
2023-02-12T07:03:04.748Z,53.89
2023-02-12T07:05:32.833Z,57.83
2023-02-12T07:07:59.693Z,57.18
2023-02-12T07:10:26.780Z,54.44
2023-02-12T07:12:53.650Z,58.42
2023-02-12T07:15:20.471Z,58.55
2023-02-12T07:17:47.366Z,57.19
2023-02-12T07:20:14.325Z,57.83
2023-02-12T07:22:41.185Z,59.20
2023-02-12T07:25:08.215Z,58.08
2023-02-12T07:27:39.035Z,59.19
2023-02-12T07:30:06.917Z,60.45
2023-02-12T07:32:34.757Z,58.87
2023-02-12T07:35:01.833Z,59.43
2023-02-12T07:37:28.862Z,60.81
2023-02-12T07:39:55.781Z,59.77
2023-02-12T07:42:22.601Z,58.89
2023-02-12T07:44:50.570Z,60.35
2023-02-12T07:47:17.670Z,59.01
2023-02-12T07:49:44.576Z,56.89
2023-02-12T07:52:13.329Z,58.90
2023-02-12T07:54:40.556Z,57.50
2023-02-12T07:57:07.492Z,56.43
2023-02-12T07:59:34.401Z,56.84
2023-02-12T08:02:01.424Z,57.40
2023-02-12T08:04:28.651Z,54.54
2023-02-12T08:06:56.810Z,52.68
2023-02-12T08:09:27.424Z,54.20
2023-02-12T08:11:54.576Z,53.82
2023-02-12T08:14:22.619Z,50.43
2023-02-12T08:16:51.119Z,50.45
2023-02-12T08:19:21.907Z,52.94
2023-02-12T08:21:53.338Z,50.97
2023-02-12T08:24:22.296Z,48.74
2023-02-12T08:26:49.820Z,49.33
2023-02-12T08:29:19.853Z,51.89
2023-02-12T08:31:48.700Z,50.47
2023-02-12T08:34:21.147Z,49.52
2023-02-12T08:36:50.436Z,51.04
2023-02-12T08:39:18.958Z,53.86
2023-02-12T08:41:46.760Z,52.40
2023-02-12T08:44:14.096Z,51.68
2023-02-12T08:46:46.906Z,53.82
2023-02-12T08:49:16.765Z,52.65
2023-02-12T08:51:48.787Z,49.31
2023-02-12T08:54:21.352Z,49.23
2023-02-12T08:56:48.302Z,48.86
2023-02-12T08:59:15.962Z,44.54
2023-02-12T09:01:43.885Z,43.76
2023-02-12T09:04:21.634Z,43.36
2023-02-12T09:06:50.105Z,48.24
2023-02-12T09:09:17.653Z,47.74
2023-02-12T09:11:44.929Z,46.61
2023-02-12T09:14:15.441Z,49.61
2023-02-12T09:16:42.512Z,50.23
2023-02-12T09:19:12.932Z,49.88
2023-02-12T09:21:39.770Z,49.15
2023-02-12T09:24:06.758Z,51.91
2023-02-12T09:26:33.638Z,50.76
2023-02-12T09:29:02.235Z,49.93
2023-02-12T09:31:31.089Z,51.13
2023-02-12T09:34:00.305Z,52.46
2023-02-12T09:36:27.611Z,49.92
2023-02-12T09:38:54.567Z,48.69
2023-02-12T09:41:27.301Z,47.55
2023-02-12T09:44:05.032Z,51.06
2023-02-12T09:46:53.372Z,54.34
2023-02-12T09:49:59.436Z,52.51
2023-02-12T09:52:29.103Z,51.56
2023-02-12T09:54:58.310Z,53.06
2023-02-12T09:57:34.755Z,53.06
2023-02-12T10:00:16.639Z,53.84
2023-02-12T10:02:43.619Z,55.97
2023-02-12T10:05:20.676Z,56.53
2023-02-12T10:08:03.602Z,56.12
2023-02-12T10:10:45.534Z,56.80
2023-02-12T10:13:40.167Z,58.39
2023-02-12T10:16:28.806Z,57.56
2023-02-12T10:19:17.366Z,58.48
2023-02-12T10:21:44.262Z,58.63
2023-02-12T10:24:33.613Z,58.05
2023-02-12T10:27:24.736Z,57.93
2023-02-12T10:29:52.686Z,58.56
2023-02-12T10:32:25.875Z,57.76
2023-02-12T10:34:56.361Z,56.26
2023-02-12T10:37:38.342Z,57.67
2023-02-12T10:40:17.557Z,57.44
2023-02-12T10:42:50.903Z,56.54
2023-02-12T10:45:25.861Z,55.51
2023-02-12T10:48:02.070Z,57.73
2023-02-12T10:50:41.686Z,56.35
2023-02-12T10:53:17.690Z,55.97
2023-02-12T10:55:44.703Z,56.79
2023-02-12T10:58:24.473Z,57.09
2023-02-12T11:00:59.690Z,55.68
2023-02-12T11:03:34.971Z,54.79
2023-02-12T11:06:16.720Z,56.69
2023-02-12T11:08:44.912Z,55.84
2023-02-12T11:11:14.891Z,55.15
2023-02-12T11:13:46.651Z,54.25
2023-02-12T11:16:13.735Z,55.53
2023-02-12T11:18:40.635Z,55.71
2023-02-12T11:21:12.608Z,54.78
2023-02-12T11:23:42.940Z,55.10
2023-02-12T11:26:19.088Z,55.41
2023-02-12T11:28:59.838Z,53.73
2023-02-12T11:31:35.184Z,55.03
2023-02-12T11:34:07.884Z,54.38
2023-02-12T11:36:44.021Z,53.33
2023-02-12T11:39:23.178Z,52.50
2023-02-12T11:41:59.563Z,52.86
2023-02-12T11:44:38.304Z,51.68
2023-02-12T11:47:17.330Z,51.41
2023-02-12T11:50:05.908Z,52.36
2023-02-12T11:52:35.626Z,50.41
2023-02-12T11:55:07.389Z,50.40
2023-02-12T11:57:46.968Z,52.02
2023-02-12T12:00:19.574Z,50.74
2023-02-12T12:03:25.329Z,51.15
2023-02-12T12:05:57.586Z,52.98
2023-02-12T12:08:44.437Z,52.39
2023-02-12T12:11:36.170Z,53.56
2023-02-12T12:14:29.830Z,55.61
2023-02-12T12:17:15.286Z,55.84
2023-02-12T12:20:17.528Z,56.26
2023-02-12T12:22:56.172Z,57.30
2023-02-12T12:25:31.010Z,57.40
2023-02-12T12:28:33.273Z,57.59
2023-02-12T12:31:24.449Z,58.04
2023-02-12T12:34:13.507Z,57.14
2023-02-12T12:36:58.311Z,57.83
2023-02-12T12:39:43.361Z,58.02
2023-02-12T12:42:32.046Z,57.85
2023-02-12T12:45:12.611Z,58.60
2023-02-12T12:47:45.258Z,59.42
2023-02-12T12:50:31.556Z,58.36
2023-02-12T12:53:12.354Z,58.26
2023-02-12T12:55:57.896Z,59.67
2023-02-12T12:59:00.034Z,59.72
2023-02-12T13:02:05.698Z,59.37
2023-02-12T13:04:51.210Z,59.78
2023-02-12T13:07:39.698Z,58.90
2023-02-12T13:10:34.246Z,58.84
2023-02-12T13:13:29.696Z,60.63
2023-02-12T13:16:02.538Z,59.41
2023-02-12T13:18:47.928Z,60.18
2023-02-12T13:21:59.003Z,62.00
2023-02-12T13:24:56.555Z,62.46
2023-02-12T13:27:27.059Z,62.40
2023-02-12T13:30:14.162Z,63.56
2023-02-12T13:32:49.901Z,62.78
2023-02-12T13:35:21.689Z,62.51
2023-02-12T13:37:58.252Z,63.19
2023-02-12T13:40:28.099Z,62.71
2023-02-12T13:42:58.582Z,63.12
2023-02-12T13:45:47.278Z,64.53
2023-02-12T13:48:16.810Z,64.00
2023-02-12T13:51:14.635Z,63.13
2023-02-12T13:53:55.248Z,64.90
2023-02-12T13:56:34.710Z,65.24
2023-02-12T13:59:01.800Z,65.21
2023-02-12T14:01:36.548Z,66.98
2023-02-12T14:04:24.566Z,67.13
2023-02-12T14:07:01.776Z,66.34
2023-02-12T14:09:41.239Z,68.86
2023-02-12T14:12:28.526Z,69.29
2023-02-12T14:15:09.652Z,69.03
2023-02-12T14:17:36.798Z,70.77
2023-02-12T14:20:25.374Z,70.78
2023-02-12T14:22:52.248Z,71.08
2023-02-12T14:25:24.965Z,72.81
2023-02-12T14:27:57.399Z,73.19
2023-02-12T14:30:40.235Z,72.52
2023-02-12T14:33:07.265Z,74.16
2023-02-12T14:35:45.776Z,74.43
2023-02-12T14:38:12.597Z,73.19
2023-02-12T14:40:45.433Z,74.07
2023-02-12T14:43:32.852Z,73.82
2023-02-12T14:46:22.665Z,72.52
2023-02-12T14:49:00.759Z,73.24
2023-02-12T14:51:41.248Z,73.82
2023-02-12T14:54:27.794Z,72.90
2023-02-12T14:56:58.086Z,73.99
2023-02-12T14:59:26.944Z,74.07
2023-02-12T15:01:57.577Z,72.89
2023-02-12T15:04:35.599Z,73.35
2023-02-12T15:07:11.674Z,74.01
2023-02-12T15:09:58.202Z,72.92
2023-02-12T15:12:32.851Z,73.01
2023-02-12T15:15:30.985Z,74.46
2023-02-12T15:30:01.981Z,74.30
2023-02-12T15:32:29.989Z,74.27
2023-02-12T15:34:57.200Z,73.88
2023-02-12T15:37:30.671Z,73.87
2023-02-12T15:40:00.972Z,73.81
2023-02-12T15:42:38.027Z,73.39
2023-02-12T15:45:08.113Z,74.16
2023-02-12T15:47:37.625Z,74.33
2023-02-12T15:50:04.783Z,74.74
2023-02-12T15:52:36.060Z,75.66
2023-02-12T15:55:05.137Z,75.01
2023-02-12T15:57:32.925Z,75.19
2023-02-12T16:00:11.191Z,75.47
2023-02-12T16:02:41.378Z,75.91
2023-02-12T16:05:12.258Z,75.26
2023-02-12T16:07:39.713Z,76.02
2023-02-12T16:10:07.275Z,78.11
2023-02-12T16:12:37.698Z,76.35
2023-02-12T16:15:05.451Z,76.66
2023-02-12T16:17:35.718Z,78.08
2023-02-12T16:20:04.880Z,77.84
2023-02-12T16:22:36.457Z,78.59
2023-02-12T16:25:13.910Z,78.52
2023-02-12T16:27:41.170Z,79.49
2023-02-12T16:30:26.813Z,79.43
2023-02-12T16:32:54.490Z,80.81
2023-02-12T16:35:21.214Z,80.38
2023-02-12T16:37:50.558Z,80.32
2023-02-12T16:40:17.540Z,79.82
2023-02-12T16:42:47.410Z,79.15
2023-02-12T16:45:26.840Z,78.36
2023-02-12T16:48:16.171Z,79.23
2023-02-12T16:50:56.166Z,78.09
2023-02-12T16:53:30.472Z,78.44
2023-02-12T16:55:59.023Z,78.55
2023-02-12T16:58:26.501Z,77.39
2023-02-12T17:00:55.962Z,75.84
2023-02-12T17:03:24.609Z,76.11
2023-02-12T17:05:52.498Z,75.92
2023-02-12T17:08:22.312Z,75.92
2023-02-12T17:10:49.330Z,75.87
2023-02-12T17:13:16.991Z,75.65
2023-02-12T17:15:51.102Z,75.46
2023-02-12T17:18:18.278Z,76.09
2023-02-12T17:20:51.942Z,75.89
2023-02-12T17:23:18.794Z,75.63
2023-02-12T17:25:45.707Z,76.60
2023-02-12T17:28:12.652Z,75.00
2023-02-12T17:30:39.588Z,74.69
2023-02-12T17:33:06.519Z,74.91
2023-02-12T17:35:33.337Z,73.45
2023-02-12T17:38:00.252Z,73.96
2023-02-12T17:40:27.100Z,73.95
2023-02-12T17:42:54.071Z,73.99
2023-02-12T17:45:20.997Z,74.28
2023-02-12T17:47:47.902Z,74.27
2023-02-12T17:50:16.775Z,73.85
2023-02-12T17:52:44.111Z,74.36
2023-02-12T17:55:13.864Z,74.42
2023-02-12T17:57:41.234Z,74.44
2023-02-12T18:00:15.084Z,73.96
2023-02-12T18:02:41.935Z,74.44
2023-02-12T18:05:09.145Z,74.64
2023-02-12T18:07:37.733Z,75.28
2023-02-12T18:10:05.983Z,75.96
2023-02-12T18:12:33.810Z,75.00
2023-02-12T18:15:03.472Z,74.90
2023-02-12T18:17:30.927Z,75.20
2023-02-12T18:19:58.049Z,74.80
2023-02-12T18:22:24.961Z,74.78
2023-02-12T18:24:52.232Z,75.02
2023-02-12T18:27:19.060Z,74.68
2023-02-12T18:29:46.079Z,74.57
2023-02-12T18:32:16.014Z,75.40
2023-02-12T18:34:43.890Z,75.44
2023-02-12T18:37:12.701Z,75.08
2023-02-12T18:39:39.653Z,74.98
2023-02-12T18:42:07.630Z,75.00
2023-02-12T18:44:34.791Z,74.58
2023-02-12T18:47:01.829Z,74.36
2023-02-12T18:49:28.789Z,75.76
2023-02-12T18:51:55.656Z,74.59
2023-02-12T18:54:22.915Z,74.40
2023-02-12T18:56:52.063Z,74.33
2023-02-12T18:59:19.982Z,74.31
2023-02-12T19:01:48.323Z,74.26
2023-02-12T19:04:16.274Z,73.97
2023-02-12T19:06:49.669Z,73.87
2023-02-12T19:09:20.305Z,73.48
2023-02-12T19:11:49.351Z,72.76
2023-02-12T19:14:18.675Z,73.27
2023-02-12T19:16:45.955Z,72.94
2023-02-12T19:19:14.508Z,72.97
2023-02-12T19:21:41.618Z,72.79
2023-02-12T19:24:11.452Z,71.91
2023-02-12T19:26:38.460Z,72.20
2023-02-12T19:29:05.570Z,71.65
2023-02-12T19:31:38.209Z,71.46
2023-02-12T19:34:08.593Z,71.43
2023-02-12T19:36:36.799Z,71.65
2023-02-12T19:39:05.027Z,71.17
2023-02-12T19:41:33.008Z,71.70
2023-02-12T19:44:01.592Z,71.24
2023-02-12T19:46:31.081Z,70.55
2023-02-12T19:49:00.309Z,70.65
2023-02-12T19:51:29.583Z,70.47
2023-02-12T19:54:01.457Z,69.81
2023-02-12T19:56:28.807Z,69.95
2023-02-12T19:58:57.614Z,70.56
2023-02-12T20:01:25.017Z,69.16
2023-02-12T20:03:52.012Z,68.57
2023-02-12T20:06:24.844Z,69.01
2023-02-12T20:08:52.269Z,68.78
2023-02-12T20:11:22.296Z,68.15
2023-02-12T20:13:49.622Z,68.44
2023-02-12T20:16:21.152Z,68.58
2023-02-12T20:18:51.049Z,68.27
2023-02-12T20:21:27.473Z,68.35
2023-02-12T20:23:55.137Z,68.75
2023-02-12T20:26:22.757Z,67.75
2023-02-12T20:28:50.658Z,68.27
2023-02-12T20:31:19.175Z,68.33
2023-02-12T20:33:46.699Z,67.72
2023-02-12T20:36:15.479Z,68.26
2023-02-12T20:38:44.817Z,68.05
2023-02-12T20:41:12.337Z,67.31
2023-02-12T20:43:39.255Z,68.21
2023-02-12T20:46:08.438Z,68.30
2023-02-12T20:48:36.828Z,68.72
2023-02-12T20:51:06.508Z,68.81
2023-02-12T20:53:33.742Z,69.11
2023-02-12T20:56:04.577Z,68.21
2023-02-12T20:58:32.038Z,69.09
2023-02-12T21:01:10.793Z,69.08
2023-02-12T21:03:37.877Z,68.45
2023-02-12T21:06:05.374Z,68.36
2023-02-12T21:08:32.476Z,68.52
2023-02-12T21:11:04.900Z,67.47
2023-02-12T21:13:31.917Z,67.58
2023-02-12T21:16:17.756Z,68.49
2023-02-12T21:18:48.800Z,68.35
2023-02-12T21:21:29.111Z,68.38
2023-02-12T21:23:58.387Z,68.35
2023-02-12T21:26:27.436Z,67.86
2023-02-12T21:28:57.208Z,68.81
2023-02-12T21:31:29.516Z,68.24
2023-02-12T21:33:57.898Z,68.38
2023-02-12T21:36:33.461Z,69.09
2023-02-12T21:39:01.073Z,69.05
2023-02-12T21:41:30.630Z,68.57
2023-02-12T21:44:00.208Z,69.03
2023-02-12T21:46:28.639Z,68.34
2023-02-12T21:48:56.502Z,68.29
2023-02-12T21:51:24.834Z,68.74
2023-02-12T21:53:54.081Z,68.96
2023-02-12T21:56:21.933Z,69.00
2023-02-12T21:58:50.998Z,69.05
2023-02-12T22:01:23.269Z,69.06
2023-02-12T22:03:50.603Z,68.77
2023-02-12T22:06:19.307Z,68.94
2023-02-12T22:08:46.880Z,69.41
2023-02-12T22:11:14.521Z,68.91
2023-02-12T22:13:41.783Z,69.19
2023-02-12T22:16:11.735Z,69.25
2023-02-12T22:18:40.039Z,69.01
2023-02-12T22:21:10.131Z,69.41
2023-02-12T22:23:38.807Z,69.47
2023-02-12T22:26:13.060Z,68.90
2023-02-12T22:28:45.558Z,69.55
2023-02-12T22:31:14.722Z,70.07
2023-02-12T22:33:41.561Z,69.99
2023-02-12T22:36:09.974Z,70.31
2023-02-12T22:38:38.642Z,70.17
2023-02-12T22:41:06.975Z,70.10
2023-02-12T22:43:35.963Z,70.44
2023-02-12T22:46:02.835Z,70.67
2023-02-12T22:48:29.773Z,70.49
2023-02-12T22:50:58.361Z,70.73
2023-02-12T22:53:26.449Z,71.13
2023-02-12T22:55:53.338Z,71.21
2023-02-12T22:58:20.254Z,71.58
2023-02-12T23:00:47.147Z,71.78
2023-02-12T23:03:13.990Z,71.41
2023-02-12T23:05:40.855Z,72.13
2023-02-12T23:08:07.673Z,71.99
2023-02-12T23:10:34.552Z,72.01
2023-02-12T23:13:03.065Z,72.28
2023-02-12T23:15:30.766Z,72.26
2023-02-12T23:17:57.596Z,71.93
2023-02-12T23:20:24.569Z,72.44
2023-02-12T23:22:51.498Z,72.62
2023-02-12T23:25:18.404Z,72.41
2023-02-12T23:27:45.241Z,73.45
2023-02-12T23:30:12.656Z,73.19
2023-02-12T23:32:39.485Z,72.94
2023-02-12T23:35:06.663Z,73.44
2023-02-12T23:37:33.558Z,73.55
2023-02-12T23:40:00.424Z,73.08
2023-02-12T23:42:27.314Z,73.45
2023-02-12T23:44:56.201Z,73.56
2023-02-12T23:47:23.684Z,73.33
2023-02-12T23:49:50.573Z,73.62
2023-02-12T23:52:17.407Z,73.61
2023-02-12T23:54:44.255Z,73.44
2023-02-12T23:57:11.115Z,74.17
2023-02-12T23:59:37.874Z,74.14
